CheckWX is a tool to help pilots better visualize weather data.  It is not intended as a substitute for an official pre-flight weather briefing.

23:10:37 UTC

KYNG TAF
Youngstown Warren Regional Airport Airport
Youngstown/Warren, Ohio, USA
KYNG 092346Z 1000/1024 25007KT P6SM SCT050 FM101000 VRB03KT P6SM SCT250 FM101700 19004KT P6SM VCSH SCT050 FM102000 22006KT P6SM VCTS BKN050CB PROB30 1021/1024 5SM -TSRA BKN025CB

Jul-10@
00:00 UTC

Jul-10 @ 00:00 UTC

Jul-10@
10:00 UTC

Jul-10 @ 10:00 UTC

TAF KYNG 092346Z 1000/1024 25007KT P6SM SCT050

Expired

Wind
  • 250° at 7 KTS
Cloud Levels
  • Scattered at 5,000' AGL

Jul-10@
10:00 UTC

Jul-10 @ 10:00 UTC

Jul-10@
17:00 UTC

Jul-10 @ 17:00 UTC

FM101000 VRB03KT P6SM SCT250

Expired

Wind
  • Variable at 3 KTS
Cloud Levels
  • Scattered at 25,000' AGL

Jul-10@
17:00 UTC

Jul-10 @ 17:00 UTC

Jul-10@
20:00 UTC

Jul-10 @ 20:00 UTC

FM101700 19004KT P6SM VCSH SCT050

Expired

Wind
  • 190° at 4 KTS
Conditions
Area Showers
Cloud Levels
  • Scattered at 5,000' AGL

Jul-10@
20:00 UTC

Jul-10 @ 20:00 UTC

Jul-11@
00:00 UTC

Jul-11 @ 00:00 UTC

FM102000 22006KT P6SM VCTS BKN050CB

From

From Standard forecast or significant change

Wind
  • 220° at 6 KTS
Conditions
Area Thunderstorm
Cloud Levels
  • Broken at 5,000' AGL

Jul-10@
21:00 UTC

Jul-10 @ 21:00 UTC

Jul-11@
00:00 UTC

Jul-11 @ 00:00 UTC

PROB30 1021/1024 5SM -TSRA BKN025CB

Probable - 30% Likelihood

Probable - 30% Likelihood during this time.

Conditions
Light Thunderstorm, Rain
Cloud Levels
  • Broken at 2,500' AGL